Fountain, MN (55935)

9:57 AM CST on December 05, 2016 (GMT -0600)
Preston | | Change Station

Elev 990 ft 43.68 °N, 92.08 °W | Updated 28 seconds ago

Overcast
Overcast
31.6 °F
Feels Like 26 °F
N
6.2
Wind Variable Wind from SSE
Gusts 9.5 mph

Today
High -- | Low -- °F
--% Chance of Precip.
Yesterday
High -- | Low -- °F
Precip. -- in
Pressure 29.84 in
Visibility 1.0 miles
Clouds Overcast 300 ft
Windchill 26 °F
Dew Point 28 °F
Humidity 88%
Rainfall 0.02 in
Snow Depth Not available.
7:27 AM 4:31 PM
Waxing Crescent, 32% visible
METAR KFKA 051554Z AUTO 17013KT 1SM BR OVC003 M01/M01 A2984 RMK AO2 T10061011
Pressure 29.84 in
Visibility 1.0 miles
Clouds Overcast 300 ft
Windchill 26 °F
Dew Point 28 °F
Humidity 88%
Rainfall 0.02 in
Snow Depth Not available.
7:27 AM 4:31 PM
Waxing Crescent, 32% visible
METAR KFKA 051554Z AUTO 17013KT 1SM BR OVC003 M01/M01 A2984 RMK AO2 T10061011

10-Day Weather Forecast

Almanac

Astronomy

Dec. 05, 2016 Rise Set
Actual Time
Civil Twilight
Nautical Twilight
Astronomical Twilight
Moon
Length of Visible Light
Length of Day
Tomorrow will be .
, % of the Moon is Illuminated

Today's Extremes

State Highs State Lows

Community

WunderPhotos

Upload Photos

1,955,794 photos uploaded!

WunderBlog® & News

Nearby

Air Quality

  Air Quality AQ Index Pollutant
Not available.

Snow Depth

Station Depth Elevation

Earthquake Activity

City Distance Mag. Time & Date
Minimum magnitude displayed is 2.5.

Coastal Water Temperatures

Place Temperature

Stations

Nearby Weather Stations

Station Location Temp. Windchill Dew Point Humidity Wind Precip. Elev Updated Type
                   

Watches & Warnings

There are currently no watches in effect.